createdAt,value
2022-09-21T00:03:53.676Z,10.18
2022-09-21T00:09:19.121Z,10.09
2022-09-21T00:14:45.223Z,9.89
2022-09-21T00:20:11.357Z,9.84
2022-09-21T00:25:36.681Z,9.79
2022-09-21T00:31:05.618Z,9.77
2022-09-21T00:36:30.651Z,9.73
2022-09-21T00:41:55.531Z,9.68
2022-09-21T00:47:28.972Z,9.70
2022-09-21T00:52:56.904Z,9.58
2022-09-21T00:58:29.741Z,9.50
2022-09-21T01:03:57.334Z,9.46
2022-09-21T01:09:21.803Z,9.28
2022-09-21T01:15:11.500Z,9.21
2022-09-21T01:20:57.813Z,9.06
2022-09-21T01:26:38.176Z,8.91
2022-09-21T01:32:10.474Z,8.79
2022-09-21T01:37:39.102Z,8.66
2022-09-21T01:43:05.717Z,8.56
2022-09-21T01:48:35.296Z,8.49
2022-09-21T01:54:05.507Z,8.48
2022-09-21T01:59:39.246Z,8.39
2022-09-21T02:05:06.802Z,8.32
2022-09-21T02:10:36.141Z,8.30
2022-09-21T02:16:15.329Z,8.27
2022-09-21T02:21:57.409Z,8.17
2022-09-21T02:27:36.478Z,8.11
2022-09-21T02:33:07.283Z,8.01
2022-09-21T02:38:35.465Z,7.98
2022-09-21T02:44:04.396Z,7.91
2022-09-21T02:49:33.450Z,7.78
2022-09-21T02:55:01.357Z,7.71
2022-09-21T03:00:26.887Z,7.58
2022-09-21T03:05:54.874Z,7.55
2022-09-21T03:11:21.063Z,7.48
2022-09-21T03:16:44.891Z,7.47
2022-09-21T03:22:09.259Z,7.44
2022-09-21T03:27:35.983Z,7.31
2022-09-21T03:32:59.877Z,7.22
2022-09-21T03:38:24.769Z,7.22
2022-09-21T03:43:53.355Z,7.35
2022-09-21T03:49:18.600Z,7.50
2022-09-21T03:54:44.052Z,7.53
2022-09-21T04:00:11.623Z,7.66
2022-09-21T04:05:35.755Z,7.80
2022-09-21T04:11:00.125Z,7.83
2022-09-21T04:16:26.077Z,7.95
2022-09-21T04:21:52.923Z,8.06
2022-09-21T04:27:17.184Z,8.34
2022-09-21T04:32:44.299Z,8.45
2022-09-21T04:38:09.043Z,8.55
2022-09-21T04:43:33.057Z,8.64
2022-09-21T04:48:58.696Z,8.60
2022-09-21T04:54:23.028Z,8.59
2022-09-21T04:59:47.169Z,8.63
2022-09-21T05:05:14.217Z,8.83
2022-09-21T05:10:40.340Z,8.75
2022-09-21T05:16:06.356Z,8.76
2022-09-21T05:21:32.197Z,9.03
2022-09-21T05:26:56.552Z,9.27
2022-09-21T05:32:27.412Z,10.19
2022-09-21T05:37:58.691Z,10.36
2022-09-21T05:43:24.056Z,10.49
2022-09-21T05:48:57.356Z,11.50
2022-09-21T05:54:33.391Z,11.22
2022-09-21T06:00:04.916Z,10.89
2022-09-21T06:05:35.949Z,11.30
2022-09-21T06:11:02.520Z,10.84
2022-09-21T06:16:27.182Z,11.08
2022-09-21T06:21:51.458Z,11.18
2022-09-21T06:27:18.497Z,11.65
2022-09-21T06:32:42.988Z,11.58
2022-09-21T06:38:08.892Z,11.45
2022-09-21T06:43:35.816Z,12.39
2022-09-21T06:48:59.685Z,13.91
2022-09-21T06:54:24.628Z,14.06
2022-09-21T06:59:50.025Z,15.00
2022-09-21T07:05:14.522Z,14.71
2022-09-21T07:10:40.156Z,13.40
2022-09-21T07:16:08.206Z,12.67
2022-09-21T07:21:33.781Z,12.13
2022-09-21T07:26:58.904Z,11.86
2022-09-21T07:32:26.030Z,12.03
2022-09-21T07:37:50.416Z,11.90
2022-09-21T07:43:15.225Z,11.64
2022-09-21T07:48:42.173Z,12.21
2022-09-21T07:54:06.750Z,12.39
2022-09-21T07:59:33.605Z,12.39
2022-09-21T08:04:59.329Z,12.96
2022-09-21T08:10:23.530Z,13.04
2022-09-21T08:15:50.150Z,13.83
2022-09-21T08:21:16.558Z,14.32
2022-09-21T08:26:40.772Z,15.38
2022-09-21T08:32:06.626Z,13.92
2022-09-21T08:37:35.995Z,14.80
2022-09-21T08:43:05.012Z,13.97
2022-09-21T08:48:36.697Z,13.63
2022-09-21T08:54:11.928Z,14.06
2022-09-21T08:59:45.379Z,15.22
2022-09-21T09:05:24.931Z,15.16
2022-09-21T09:11:01.278Z,15.12
2022-09-21T09:16:34.883Z,14.40
2022-09-21T09:21:59.067Z,15.23
2022-09-21T09:27:29.808Z,16.77
2022-09-21T09:32:58.671Z,16.41
2022-09-21T09:38:27.947Z,15.73
2022-09-21T09:44:08.113Z,14.67
2022-09-21T09:49:40.631Z,14.47
2022-09-21T09:55:16.690Z,14.78
2022-09-21T10:00:42.960Z,15.15
2022-09-21T10:06:31.500Z,15.80
2022-09-21T10:11:59.923Z,15.17
2022-09-21T10:17:27.030Z,14.85
2022-09-21T10:22:57.149Z,15.25
2022-09-21T10:28:24.606Z,15.25
2022-09-21T10:33:53.801Z,15.06
2022-09-21T10:39:23.548Z,14.99
2022-09-21T10:44:51.881Z,15.14
2022-09-21T10:50:26.761Z,15.46
2022-09-21T10:56:14.898Z,15.32
2022-09-21T11:01:45.975Z,15.22
2022-09-21T11:07:17.482Z,15.16
2022-09-21T11:12:50.958Z,14.97
2022-09-21T11:18:22.503Z,14.84
2022-09-21T11:23:58.222Z,14.85
2022-09-21T11:29:30.502Z,15.06
2022-09-21T11:35:10.888Z,14.83
2022-09-21T11:40:52.388Z,14.87
2022-09-21T11:46:25.997Z,14.85
2022-09-21T11:52:04.657Z,15.01
2022-09-21T11:57:35.376Z,15.00
2022-09-21T12:03:35.412Z,15.08
2022-09-21T12:09:15.524Z,15.15
2022-09-21T12:14:52.449Z,14.93
2022-09-21T12:20:24.946Z,14.97
2022-09-21T12:25:53.261Z,15.43
2022-09-21T12:31:21.783Z,15.53
2022-09-21T12:36:52.080Z,15.50
2022-09-21T12:42:29.077Z,15.60
2022-09-21T12:48:01.300Z,15.66
2022-09-21T12:53:28.179Z,15.82
2022-09-21T12:59:16.253Z,15.63
2022-09-21T13:04:58.769Z,15.51
2022-09-21T13:10:39.712Z,15.47
2022-09-21T13:16:08.163Z,15.44
2022-09-21T13:21:34.896Z,15.29
2022-09-21T13:27:02.525Z,15.25
2022-09-21T13:32:56.572Z,15.23
2022-09-21T13:38:25.377Z,15.25
2022-09-21T13:44:04.369Z,15.25
2022-09-21T13:49:40.054Z,15.07
2022-09-21T13:55:07.699Z,14.98
2022-09-21T14:00:37.678Z,14.88
2022-09-21T14:06:09.808Z,14.90
2022-09-21T14:11:37.240Z,14.96
2022-09-21T14:17:03.138Z,14.89
2022-09-21T14:22:44.828Z,14.88
2022-09-21T14:28:14.421Z,14.76
2022-09-21T14:33:48.306Z,14.69
2022-09-21T14:39:18.831Z,14.71
2022-09-21T14:44:47.826Z,14.75
2022-09-21T14:50:30.056Z,14.76
2022-09-21T14:56:23.224Z,14.76
2022-09-21T15:01:58.454Z,14.66
2022-09-21T15:07:53.337Z,14.61
2022-09-21T15:13:33.453Z,14.44
2022-09-21T15:19:13.870Z,14.30
2022-09-21T15:24:38.819Z,14.27
2022-09-21T15:30:07.536Z,14.13
2022-09-21T15:35:33.708Z,14.01
2022-09-21T15:41:02.769Z,13.90
2022-09-21T15:46:29.629Z,13.81
2022-09-21T15:51:58.740Z,13.71
2022-09-21T15:57:36.771Z,13.60
2022-09-21T16:03:07.008Z,13.55
2022-09-21T16:08:34.505Z,13.43
2022-09-21T16:14:23.122Z,13.23
2022-09-21T16:20:15.165Z,13.05
2022-09-21T16:25:39.460Z,12.95
2022-09-21T16:31:28.834Z,12.84
2022-09-21T16:36:55.119Z,12.53
2022-09-21T16:42:22.215Z,12.32
2022-09-21T16:47:47.073Z,12.14
2022-09-21T16:53:13.174Z,12.04
2022-09-21T16:58:38.228Z,11.95
2022-09-21T17:04:02.948Z,11.90
2022-09-21T17:09:33.336Z,11.87
2022-09-21T17:14:57.468Z,11.85
2022-09-21T17:20:34.302Z,11.85
2022-09-21T17:26:00.438Z,11.80
2022-09-21T17:31:28.038Z,11.78
2022-09-21T17:36:53.009Z,11.69
2022-09-21T17:42:21.305Z,11.61
2022-09-21T17:47:50.210Z,11.55
2022-09-21T17:53:32.574Z,11.46
2022-09-21T17:59:02.376Z,11.42
2022-09-21T18:04:28.592Z,11.34
2022-09-21T18:09:52.832Z,11.30
2022-09-21T18:15:24.074Z,11.32
2022-09-21T18:20:57.776Z,11.34
2022-09-21T18:26:23.815Z,11.34
2022-09-21T18:32:00.512Z,11.31
2022-09-21T18:37:35.666Z,11.18
2022-09-21T18:43:08.452Z,11.10
2022-09-21T18:48:51.174Z,11.12
2022-09-21T18:54:22.417Z,11.13
2022-09-21T18:59:47.912Z,11.08
2022-09-21T19:05:19.117Z,10.97
2022-09-21T19:10:46.955Z,10.81
2022-09-21T19:16:25.196Z,10.73
2022-09-21T19:21:57.422Z,10.69
2022-09-21T19:27:31.222Z,10.68
2022-09-21T19:32:58.256Z,10.69
2022-09-21T19:38:24.528Z,10.66
2022-09-21T19:43:56.741Z,10.64
2022-09-21T19:49:22.255Z,10.68
2022-09-21T19:55:05.974Z,10.75
2022-09-21T20:00:32.460Z,10.76
2022-09-21T20:06:04.573Z,10.76
2022-09-21T20:11:42.160Z,10.68
2022-09-21T20:17:10.743Z,10.69
2022-09-21T20:22:37.631Z,10.72
2022-09-21T20:28:03.993Z,10.68
2022-09-21T20:33:31.984Z,10.35
2022-09-21T20:38:56.992Z,10.10
2022-09-21T20:44:24.670Z,9.90
2022-09-21T20:49:52.189Z,9.84
2022-09-21T20:55:20.361Z,9.79
2022-09-21T21:00:47.100Z,9.73
2022-09-21T21:06:12.741Z,9.80
2022-09-21T21:11:37.179Z,9.87
2022-09-21T21:17:03.350Z,9.87
2022-09-21T21:22:27.580Z,9.90
2022-09-21T21:27:51.791Z,9.91
2022-09-21T21:33:18.651Z,9.95
2022-09-21T21:38:43.694Z,9.99
2022-09-21T21:44:07.845Z,10.03
2022-09-21T21:49:33.812Z,10.01
2022-09-21T21:54:57.681Z,9.83
2022-09-21T22:00:23.795Z,9.67
2022-09-21T22:05:50.642Z,9.62
2022-09-21T22:11:17.445Z,9.59
2022-09-21T22:16:41.459Z,9.60
2022-09-21T22:22:07.065Z,9.64
2022-09-21T22:27:31.052Z,9.69
2022-09-21T22:32:55.332Z,9.66
2022-09-21T22:38:20.712Z,9.62
2022-09-21T22:43:46.088Z,9.49
2022-09-21T22:49:10.185Z,9.41
2022-09-21T22:54:35.635Z,9.27
2022-09-21T23:00:00.128Z,9.26
2022-09-21T23:05:24.566Z,9.14
2022-09-21T23:10:50.889Z,9.07
2022-09-21T23:16:15.987Z,9.04
2022-09-21T23:21:41.121Z,9.03
2022-09-21T23:27:07.980Z,9.00
2022-09-21T23:32:32.215Z,9.00
2022-09-21T23:37:56.765Z,9.00
2022-09-21T23:43:22.868Z,9.02
2022-09-21T23:48:47.574Z,9.03
2022-09-21T23:54:11.934Z,9.05
2022-09-21T23:59:37.434Z,9.02
